Time;durP1;ratioP1;P1;durP2;ratioP2;P2;SDS_P1;SDS_P2;PMS_P1;PMS_P2;Temp;Humidity;BMP_temperature;BMP_pressure;BME280_temperature;BME280_humidity;BME280_pressure;Samples;Min_cycle;Max_cycle;Signal;HPM_P1;HPM_P2
2023/01/30 08:48:02;;;;;;;0.10;0.10;;;6.50;99.90;;;;;;6211282;23;20109;-93
2023/01/30 08:50:29;;;;;;;0.10;0.10;;;;;;;;;;6185016;23;20017;-94
2023/01/30 08:52:55;;;;;;;0.10;0.10;;;;;;;;;;6185285;23;19995;-92
2023/01/30 08:55:21;;;;;;;0.10;0.10;;;;;;;;;;6185568;23;20005;-94
2023/01/30 08:57:48;;;;;;;0.10;0.10;;;;;;;;;;6185690;23;20045;-92
2023/01/30 09:00:45;;;;;;;0.10;0.10;;;6.70;99.90;;;;;;6186319;23;19993;-94
2023/01/30 09:03:15;;;;;;;0.10;0.10;;;6.70;99.90;;;;;;6211569;23;20184;-93
2023/01/30 09:05:41;;;;;;;;;;;6.70;99.90;;;;;;6186764;23;19993;-94
2023/01/30 09:08:07;;;;;;;0.17;0.17;;;;;;;;;;6185792;23;19923;-94
2023/01/30 09:10:32;;;;;;;0.10;0.10;;;6.80;99.90;;;;;;6185840;23;20020;-94
2023/01/30 09:12:58;;;;;;;0.10;0.10;;;6.70;99.90;;;;;;6185026;23;19992;-95
2023/01/30 09:15:23;;;;;;;0.10;0.10;;;6.70;99.90;;;;;;6185227;23;20001;-95
2023/01/30 09:17:51;;;;;;;0.10;0.10;;;6.70;99.90;;;;;;6181738;23;20004;-93
2023/01/30 09:20:19;;;;;;;0.10;0.10;;;;;;;;;;6186373;23;20020;-94
2023/01/30 09:22:45;;;;;;;0.10;0.10;;;;;;;;;;6185675;23;19993;-95
2023/01/30 09:25:11;;;;;;;0.10;0.10;;;;;;;;;;6186140;23;20000;-94
2023/01/30 09:27:37;;;;;;;0.10;0.10;;;;;;;;;;6185941;23;20028;-94
2023/01/30 09:30:04;;;;;;;0.10;0.10;;;6.70;99.90;;;;;;6186465;23;19993;-94
2023/01/30 09:35:15;;;;;;;0.10;0.10;;;;;;;;;;6212255;23;20031;-95
2023/01/30 09:37:52;;;;;;;0.00;0.00;;;6.80;99.90;;;;;;6185259;23;20049;-96
2023/01/30 09:40:22;;;;;;;0.10;0.10;;;6.90;99.90;;;;;;6186297;23;19993;-96
2023/01/30 09:43:15;;;;;;;0.10;0.10;;;7.00;99.90;;;;;;6185732;23;20013;-94
2023/01/30 09:45:41;;;;;;;0.10;0.10;;;;;;;;;;6186273;23;20017;-95
2023/01/30 09:48:41;;;;;;;0.10;0.10;;;7.10;99.90;;;;;;6184557;23;20013;-95
2023/01/30 09:51:38;;;;;;;0.10;0.10;;;7.20;99.90;;;;;;6186218;23;20028;-95
2023/01/30 09:54:36;;;;;;;0.10;0.10;;;7.20;99.90;;;;;;6184982;23;19996;-96
2023/01/30 09:57:16;;;;;;;0.10;0.10;;;7.20;99.90;;;;;;6185652;23;20017;-96
2023/01/30 10:00:02;;;;;;;0.10;0.10;;;7.20;99.90;;;;;;6185833;23;20004;-95
2023/01/30 10:03:13;;;;;;;0.10;0.10;;;7.00;99.90;;;;;;6186210;23;19993;-95
2023/01/30 10:06:06;;;;;;;0.10;0.10;;;7.00;99.90;;;;;;6179253;23;19989;-94
2023/01/30 10:09:02;;;;;;;0.10;0.10;;;7.10;99.90;;;;;;6185909;23;19993;-94
2023/01/30 10:11:28;;;;;;;0.10;0.10;;;;;;;;;;6186457;23;19993;-95
2023/01/30 10:13:54;;;;;;;0.10;0.10;;;;;;;;;;6185607;23;20040;-95
2023/01/30 10:16:29;;;;;;;0.10;0.10;;;7.10;99.90;;;;;;6185463;23;20013;-95
2023/01/30 10:19:16;;;;;;;0.10;0.10;;;7.30;99.90;;;;;;6184813;23;19994;-95
2023/01/30 10:21:53;;;;;;;0.10;0.10;;;7.30;99.90;;;;;;6186315;23;19997;-96
2023/01/30 10:24:56;;;;;;;0.10;0.10;;;7.30;99.90;;;;;;6185030;23;19993;-96
2023/01/30 10:27:24;;;;;;;0.10;0.10;;;7.30;99.90;;;;;;6185783;23;20013;-94
2023/01/30 10:29:55;;;;;;;0.08;0.08;;;8.80;99.90;;;;;;6185597;23;19997;-93
2023/01/30 10:35:36;;;;;;;0.10;0.10;;;7.30;99.90;;;;;;6211524;23;20016;-95
2023/01/30 10:38:29;;;;;;;0.10;0.10;;;7.40;99.90;;;;;;6184442;23;20059;-95
2023/01/30 10:41:12;;;;;;;0.10;0.10;;;7.40;99.90;;;;;;6166463;23;20016;-93
2023/01/30 10:43:44;;;;;;;0.10;0.10;;;7.40;99.90;;;;;;6212513;23;20020;-93
2023/01/30 10:46:41;;;;;;;0.10;0.10;;;7.30;99.90;;;;;;6187129;23;20005;-94
2023/01/30 10:49:39;;;;;;;0.10;0.10;;;7.40;99.90;;;;;;6187284;23;20013;-94
2023/01/30 10:52:43;;;;;;;0.10;0.10;;;7.30;99.90;;;;;;6187639;23;20052;-96
2023/01/30 10:55:09;;;;;;;0.10;0.10;;;;;;;;;;6211493;23;20004;-96
2023/01/30 10:58:04;;;;;;;0.10;0.10;;;7.30;99.90;;;;;;6187528;23;19989;-96
2023/01/30 11:00:38;;;;;;;0.10;0.10;;;7.20;99.90;;;;;;6187603;23;19993;-95
2023/01/30 11:03:36;;;;;;;0.10;0.10;;;7.30;99.90;;;;;;6187063;23;20235;-96
2023/01/30 11:06:15;;;;;;;0.10;0.10;;;7.40;99.90;;;;;;6186811;23;20068;-96
2023/01/30 11:08:42;;;;;;;0.10;0.10;;;;;;;;;;6187625;23;19996;-95
2023/01/30 11:11:30;;;;;;;0.10;0.10;;;7.40;99.90;;;;;;6187339;23;20016;-95
2023/01/30 11:14:04;;;;;;;0.10;0.10;;;7.50;99.90;;;;;;6185913;23;20034;-95
2023/01/30 11:16:32;;;;;;;0.10;0.10;;;7.60;99.90;;;;;;6186393;23;20001;-95
2023/01/30 11:19:00;;;;;;;0.10;0.10;;;;;;;;;;6186388;23;19985;-94
2023/01/30 11:21:29;;;;;;;0.10;0.10;;;7.70;99.90;;;;;;6186652;23;19993;-95
2023/01/30 11:23:55;;;;;;;0.10;0.10;;;;;;;;;;6187199;23;19997;-94
2023/01/30 11:26:29;;;;;;;0.10;0.10;;;7.50;99.90;;;;;;6187595;23;19989;-95
2023/01/30 11:28:55;;;;;;;0.10;0.10;;;;;;;;;;6186531;23;19993;-95
2023/01/30 11:31:26;;;;;;;0.10;0.10;;;7.50;99.90;;;;;;6186787;23;19997;-95
2023/01/30 11:34:27;;;;;;;;;;;6.50;99.90;;;;;;6187037;23;20005;-92
2023/01/30 11:36:53;;;;;;;0.10;0.10;;;;;;;;;;6069505;23;19906;-94
2023/01/30 11:39:46;;;;;;;0.10;0.10;;;7.40;99.90;;;;;;6161451;23;20001;-93
2023/01/30 11:42:12;;;;;;;0.10;0.10;;;;;;;;;;6187026;23;20001;-94
2023/01/30 11:44:41;;;;;;;0.10;0.10;;;7.40;99.90;;;;;;6186659;23;20016;-95
2023/01/30 11:47:18;;;;;;;0.10;0.10;;;7.50;99.90;;;;;;6186372;23;20107;-96
2023/01/30 11:49:51;;;;;;;0.10;0.10;;;7.50;99.90;;;;;;6186239;23;20012;-95
2023/01/30 11:58:34;;;;;;;0.10;0.10;;;7.00;99.90;;;;;;6212373;23;20028;-95
2023/01/30 12:01:00;;;;;;;0.10;0.10;;;;;;;;;;6186230;23;19993;-95
2023/01/30 12:03:28;;;;;;;0.10;0.10;;;6.50;99.90;;;;;;6185272;23;19993;-94
2023/01/30 12:05:54;;;;;;;0.10;0.10;;;;;;;;;;6186132;23;19993;-94
2023/01/30 12:16:21;;;;;;;0.08;0.08;;;5.80;99.90;;;;;;6209126;23;20029;-92
2023/01/30 12:18:55;;;;;;;0.10;0.10;;;5.70;99.90;;;;;;6181448;23;19994;-92
2023/01/30 12:21:41;;;;;;;0.10;0.10;;;5.80;99.90;;;;;;6184168;23;19989;-92
2023/01/30 12:24:23;;;;;;;0.10;0.10;;;5.80;99.90;;;;;;6182396;23;20001;-88
